sensor_id;sensor_type;location;lat;lon;timestamp;pressure;altitude;pressure_sealevel;temperature;humidity
71109;BME280;59614;51.012;-1.648;2023-05-03T00:00:07;101827.53;;;9.40;84.77
71109;BME280;59614;51.012;-1.648;2023-05-03T00:02:33;101830.19;;;9.45;84.41
71109;BME280;59614;51.012;-1.648;2023-05-03T00:05:00;101826.59;;;9.37;85.08
71109;BME280;59614;51.012;-1.648;2023-05-03T00:07:25;101839.06;;;9.52;84.79
71109;BME280;59614;51.012;-1.648;2023-05-03T00:09:51;101839.03;;;9.49;84.97
71109;BME280;59614;51.012;-1.648;2023-05-03T00:12:16;101834.78;;;9.65;85.41
71109;BME280;59614;51.012;-1.648;2023-05-03T00:14:41;101836.69;;;9.78;84.03
71109;BME280;59614;51.012;-1.648;2023-05-03T00:17:07;101833.91;;;9.64;84.45
71109;BME280;59614;51.012;-1.648;2023-05-03T00:19:32;101830.38;;;9.61;85.90
71109;BME280;59614;51.012;-1.648;2023-05-03T00:21:59;101836.19;;;9.30;87.99
71109;BME280;59614;51.012;-1.648;2023-05-03T00:24:25;101830.00;;;9.28;88.57
71109;BME280;59614;51.012;-1.648;2023-05-03T00:26:50;101832.75;;;9.34;88.72
71109;BME280;59614;51.012;-1.648;2023-05-03T00:29:16;101830.19;;;9.43;88.54
71109;BME280;59614;51.012;-1.648;2023-05-03T00:31:43;101834.22;;;9.10;89.23
71109;BME280;59614;51.012;-1.648;2023-05-03T00:34:08;101832.44;;;9.09;89.30
71109;BME280;59614;51.012;-1.648;2023-05-03T00:36:34;101826.00;;;8.86;89.83
71109;BME280;59614;51.012;-1.648;2023-05-03T00:38:59;101829.72;;;9.03;88.31
71109;BME280;59614;51.012;-1.648;2023-05-03T00:41:25;101825.34;;;9.05;87.95
71109;BME280;59614;51.012;-1.648;2023-05-03T00:43:50;101833.34;;;9.11;88.26
71109;BME280;59614;51.012;-1.648;2023-05-03T00:46:16;101823.72;;;9.15;87.29
71109;BME280;59614;51.012;-1.648;2023-05-03T00:48:42;101826.75;;;9.51;85.84
71109;BME280;59614;51.012;-1.648;2023-05-03T00:51:07;101826.56;;;9.35;86.28
71109;BME280;59614;51.012;-1.648;2023-05-03T00:53:35;101824.69;;;9.22;86.52
71109;BME280;59614;51.012;-1.648;2023-05-03T00:56:00;101813.03;;;9.04;87.10
71109;BME280;59614;51.012;-1.648;2023-05-03T00:58:26;101809.44;;;8.98;87.39
71109;BME280;59614;51.012;-1.648;2023-05-03T01:00:51;101812.88;;;8.90;87.84
71109;BME280;59614;51.012;-1.648;2023-05-03T01:03:17;101812.28;;;9.11;86.93
71109;BME280;59614;51.012;-1.648;2023-05-03T01:06:17;101803.41;;;9.06;87.01
71109;BME280;59614;51.012;-1.648;2023-05-03T01:08:57;101804.53;;;9.27;85.35
71109;BME280;59614;51.012;-1.648;2023-05-03T01:11:36;101799.16;;;9.16;85.27
71109;BME280;59614;51.012;-1.648;2023-05-03T01:14:21;101806.97;;;9.08;85.61
71109;BME280;59614;51.012;-1.648;2023-05-03T01:16:53;101807.47;;;8.78;85.62
71109;BME280;59614;51.012;-1.648;2023-05-03T01:22:38;101803.16;;;8.85;86.37
71109;BME280;59614;51.012;-1.648;2023-05-03T01:25:08;101806.25;;;8.56;86.75
71109;BME280;59614;51.012;-1.648;2023-05-03T01:27:38;101801.09;;;8.60;87.02
71109;BME280;59614;51.012;-1.648;2023-05-03T01:30:06;101801.09;;;8.60;87.42
71109;BME280;59614;51.012;-1.648;2023-05-03T01:32:45;101790.63;;;8.67;87.02
71109;BME280;59614;51.012;-1.648;2023-05-03T01:38:00;101791.38;;;8.55;87.50
71109;BME280;59614;51.012;-1.648;2023-05-03T01:40:28;101784.19;;;8.46;87.21
71109;BME280;59614;51.012;-1.648;2023-05-03T01:42:55;101785.13;;;8.49;87.10
71109;BME280;59614;51.012;-1.648;2023-05-03T01:45:21;101785.19;;;8.53;87.10
71109;BME280;59614;51.012;-1.648;2023-05-03T01:47:47;101783.22;;;8.39;88.47
71109;BME280;59614;51.012;-1.648;2023-05-03T01:50:13;101774.22;;;8.25;87.83
71109;BME280;59614;51.012;-1.648;2023-05-03T01:52:38;101774.09;;;8.17;89.16
71109;BME280;59614;51.012;-1.648;2023-05-03T01:55:04;101778.81;;;8.38;88.48
71109;BME280;59614;51.012;-1.648;2023-05-03T01:57:30;101773.88;;;8.01;88.35
71109;BME280;59614;51.012;-1.648;2023-05-03T01:59:55;101780.84;;;7.98;89.67
71109;BME280;59614;51.012;-1.648;2023-05-03T02:02:21;101782.69;;;8.05;88.69
71109;BME280;59614;51.012;-1.648;2023-05-03T02:04:46;101770.47;;;8.07;87.26
71109;BME280;59614;51.012;-1.648;2023-05-03T02:07:12;101780.84;;;7.98;87.55
71109;BME280;59614;51.012;-1.648;2023-05-03T02:09:37;101777.19;;;7.89;88.06
71109;BME280;59614;51.012;-1.648;2023-05-03T02:12:03;101773.84;;;8.00;87.56
71109;BME280;59614;51.012;-1.648;2023-05-03T02:14:29;101772.91;;;7.96;86.55
71109;BME280;59614;51.012;-1.648;2023-05-03T02:16:54;101773.31;;;8.23;85.05
71109;BME280;59614;51.012;-1.648;2023-05-03T02:19:20;101772.22;;;8.08;85.70
71109;BME280;59614;51.012;-1.648;2023-05-03T02:21:45;101780.50;;;7.79;86.37
71109;BME280;59614;51.012;-1.648;2023-05-03T02:24:11;101778.25;;;8.01;85.20
71109;BME280;59614;51.012;-1.648;2023-05-03T02:26:36;101778.06;;;7.90;85.80
71109;BME280;59614;51.012;-1.648;2023-05-03T02:29:02;101768.78;;;8.12;84.54
71109;BME280;59614;51.012;-1.648;2023-05-03T02:31:28;101777.09;;;7.83;85.24
71109;BME280;59614;51.012;-1.648;2023-05-03T02:33:53;101777.94;;;7.82;85.42
71109;BME280;59614;51.012;-1.648;2023-05-03T02:36:19;101776.03;;;7.72;86.00
71109;BME280;59614;51.012;-1.648;2023-05-03T02:38:46;101776.31;;;7.89;84.61
71109;BME280;59614;51.012;-1.648;2023-05-03T02:41:11;101778.66;;;7.72;85.29
71109;BME280;59614;51.012;-1.648;2023-05-03T02:43:37;101772.75;;;7.85;85.03
71109;BME280;59614;51.012;-1.648;2023-05-03T02:46:02;101772.00;;;7.94;84.39
71109;BME280;59614;51.012;-1.648;2023-05-03T02:48:28;101774.13;;;7.63;84.24
71109;BME280;59614;51.012;-1.648;2023-05-03T02:50:53;101771.69;;;7.76;84.31
71109;BME280;59614;51.012;-1.648;2023-05-03T02:53:19;101766.28;;;7.65;84.47
71109;BME280;59614;51.012;-1.648;2023-05-03T02:55:44;101772.75;;;7.87;84.71
71109;BME280;59614;51.012;-1.648;2023-05-03T02:58:10;101776.19;;;7.83;84.04
71109;BME280;59614;51.012;-1.648;2023-05-03T03:00:36;101767.50;;;7.87;83.71
71109;BME280;59614;51.012;-1.648;2023-05-03T03:03:02;101770.00;;;7.79;84.06
71109;BME280;59614;51.012;-1.648;2023-05-03T03:05:27;101773.53;;;7.81;83.56
71109;BME280;59614;51.012;-1.648;2023-05-03T03:07:53;101761.56;;;7.99;83.58
71109;BME280;59614;51.012;-1.648;2023-05-03T03:10:19;101770.00;;;7.79;83.27
71109;BME280;59614;51.012;-1.648;2023-05-03T03:12:44;101759.63;;;7.88;83.33
71109;BME280;59614;51.012;-1.648;2023-05-03T03:15:10;101761.41;;;7.89;83.07
71109;BME280;59614;51.012;-1.648;2023-05-03T03:17:35;101762.38;;;7.93;83.38
71109;BME280;59614;51.012;-1.648;2023-05-03T03:20:07;101749.22;;;7.95;82.70
71109;BME280;59614;51.012;-1.648;2023-05-03T03:22:37;101749.22;;;7.95;82.24
71109;BME280;59614;51.012;-1.648;2023-05-03T03:25:04;101751.75;;;7.88;82.38
71109;BME280;59614;51.012;-1.648;2023-05-03T03:27:29;101749.03;;;7.82;82.33
71109;BME280;59614;51.012;-1.648;2023-05-03T03:29:55;101746.28;;;7.75;82.51
71109;BME280;59614;51.012;-1.648;2023-05-03T03:32:20;101740.78;;;7.59;83.51
71109;BME280;59614;51.012;-1.648;2023-05-03T03:34:46;101732.19;;;7.71;82.44
71109;BME280;59614;51.012;-1.648;2023-05-03T03:37:11;101735.69;;;7.71;82.51
71109;BME280;59614;51.012;-1.648;2023-05-03T03:39:37;101736.41;;;7.60;83.75
71109;BME280;59614;51.012;-1.648;2023-05-03T03:42:05;101733.06;;;7.71;83.08
71109;BME280;59614;51.012;-1.648;2023-05-03T03:44:30;101732.59;;;7.42;83.98
71109;BME280;59614;51.012;-1.648;2023-05-03T03:46:56;101720.69;;;7.63;83.68
71109;BME280;59614;51.012;-1.648;2023-05-03T03:49:21;101723.91;;;7.46;83.55
71109;BME280;59614;51.012;-1.648;2023-05-03T03:51:46;101726.06;;;7.70;82.53
71109;BME280;59614;51.012;-1.648;2023-05-03T03:54:12;101724.19;;;7.62;82.64
71109;BME280;59614;51.012;-1.648;2023-05-03T03:56:38;101728.38;;;7.52;82.91
71109;BME280;59614;51.012;-1.648;2023-05-03T03:59:03;101709.84;;;7.42;82.76
71109;BME280;59614;51.012;-1.648;2023-05-03T04:01:29;101715.56;;;7.70;81.93
71109;BME280;59614;51.012;-1.648;2023-05-03T04:03:54;101711.25;;;7.74;81.67
71109;BME280;59614;51.012;-1.648;2023-05-03T04:06:20;101717.47;;;7.29;82.93
71109;BME280;59614;51.012;-1.648;2023-05-03T04:08:45;101716.06;;;7.49;83.26
71109;BME280;59614;51.012;-1.648;2023-05-03T04:11:11;101704.50;;;7.38;82.89
71109;BME280;59614;51.012;-1.648;2023-05-03T04:13:37;101704.50;;;7.38;83.20
71109;BME280;59614;51.012;-1.648;2023-05-03T04:16:03;101703.00;;;7.52;82.84
71109;BME280;59614;51.012;-1.648;2023-05-03T04:18:29;101700.13;;;7.38;83.38
71109;BME280;59614;51.012;-1.648;2023-05-03T04:20:54;101701.41;;;7.11;84.18
71109;BME280;59614;51.012;-1.648;2023-05-03T04:23:20;101709.94;;;7.00;84.84
71109;BME280;59614;51.012;-1.648;2023-05-03T04:25:46;101702.88;;;7.46;83.22
71109;BME280;59614;51.012;-1.648;2023-05-03T04:28:13;101708.34;;;7.58;82.42
71109;BME280;59614;51.012;-1.648;2023-05-03T04:30:39;101707.06;;;7.35;83.29
71109;BME280;59614;51.012;-1.648;2023-05-03T04:33:07;101700.34;;;7.51;81.71
71109;BME280;59614;51.012;-1.648;2023-05-03T04:35:33;101701.09;;;7.42;82.75
71109;BME280;59614;51.012;-1.648;2023-05-03T04:37:58;101700.19;;;7.43;82.79
71109;BME280;59614;51.012;-1.648;2023-05-03T04:40:24;101688.81;;;7.41;83.23
71109;BME280;59614;51.012;-1.648;2023-05-03T04:42:49;101693.00;;;7.30;82.83
71109;BME280;59614;51.012;-1.648;2023-05-03T04:45:15;101693.47;;;7.07;83.79
71109;BME280;59614;51.012;-1.648;2023-05-03T04:47:40;101694.41;;;7.12;83.92
71109;BME280;59614;51.012;-1.648;2023-05-03T04:50:06;101694.53;;;7.18;83.35
71109;BME280;59614;51.012;-1.648;2023-05-03T04:52:33;101693.69;;;7.19;83.86
71109;BME280;59614;51.012;-1.648;2023-05-03T04:54:59;101694.75;;;7.31;83.92
71109;BME280;59614;51.012;-1.648;2023-05-03T04:57:25;101688.22;;;7.07;83.97
71109;BME280;59614;51.012;-1.648;2023-05-03T04:59:51;101684.13;;;7.23;84.24
71109;BME280;59614;51.012;-1.648;2023-05-03T05:02:20;101685.59;;;7.08;84.85
71109;BME280;59614;51.012;-1.648;2023-05-03T05:04:47;101682.03;;;7.05;84.26
71109;BME280;59614;51.012;-1.648;2023-05-03T05:07:13;101679.47;;;7.08;84.03
71109;BME280;59614;51.012;-1.648;2023-05-03T05:09:38;101678.50;;;7.53;82.98
71109;BME280;59614;51.012;-1.648;2023-05-03T05:12:04;101693.16;;;7.40;83.41
71109;BME280;59614;51.012;-1.648;2023-05-03T05:14:30;101690.50;;;7.39;82.73
71109;BME280;59614;51.012;-1.648;2023-05-03T05:16:56;101688.94;;;7.50;82.30
71109;BME280;59614;51.012;-1.648;2023-05-03T05:19:22;101696.53;;;7.33;82.88
71109;BME280;59614;51.012;-1.648;2023-05-03T05:21:48;101699.53;;;7.53;83.34
71109;BME280;59614;51.012;-1.648;2023-05-03T05:24:13;101696.91;;;7.56;82.80
71109;BME280;59614;51.012;-1.648;2023-05-03T05:26:40;101698.53;;;7.48;83.00
71109;BME280;59614;51.012;-1.648;2023-05-03T05:29:06;101705.56;;;7.48;82.88
71109;BME280;59614;51.012;-1.648;2023-05-03T05:31:31;101700.66;;;7.71;81.47
71109;BME280;59614;51.012;-1.648;2023-05-03T05:33:57;101711.78;;;7.54;82.85
71109;BME280;59614;51.012;-1.648;2023-05-03T05:36:22;101706.84;;;7.75;82.62
71109;BME280;59614;51.012;-1.648;2023-05-03T05:38:48;101708.56;;;7.71;81.49
71109;BME280;59614;51.012;-1.648;2023-05-03T05:41:13;101709.91;;;8.02;80.89
71109;BME280;59614;51.012;-1.648;2023-05-03T05:43:39;101700.69;;;8.32;79.46
71109;BME280;59614;51.012;-1.648;2023-05-03T05:46:04;101705.34;;;8.52;78.70
71109;BME280;59614;51.012;-1.648;2023-05-03T05:48:30;101703.38;;;8.35;79.42
71109;BME280;59614;51.012;-1.648;2023-05-03T05:50:56;101707.66;;;8.27;79.36
71109;BME280;59614;51.012;-1.648;2023-05-03T05:53:21;101709.19;;;8.14;80.43
71109;BME280;59614;51.012;-1.648;2023-05-03T05:55:47;101716.63;;;7.83;80.17
71109;BME280;59614;51.012;-1.648;2023-05-03T05:58:13;101717.81;;;8.02;80.30
71109;BME280;59614;51.012;-1.648;2023-05-03T06:00:38;101707.72;;;8.35;79.23
71109;BME280;59614;51.012;-1.648;2023-05-03T06:03:04;101719.59;;;8.05;80.15
71109;BME280;59614;51.012;-1.648;2023-05-03T06:05:30;101714.16;;;7.93;80.81
71109;BME280;59614;51.012;-1.648;2023-05-03T06:07:55;101709.44;;;8.31;80.10
71109;BME280;59614;51.012;-1.648;2023-05-03T06:10:21;101723.31;;;8.19;80.10
71109;BME280;59614;51.012;-1.648;2023-05-03T06:12:46;101719.53;;;8.02;79.84
71109;BME280;59614;51.012;-1.648;2023-05-03T06:15:12;101704.97;;;8.24;79.52
71109;BME280;59614;51.012;-1.648;2023-05-03T06:17:37;101719.50;;;8.62;79.26
71109;BME280;59614;51.012;-1.648;2023-05-03T06:20:03;101724.63;;;8.51;78.12
71109;BME280;59614;51.012;-1.648;2023-05-03T06:22:29;101728.22;;;8.56;79.07
71109;BME280;59614;51.012;-1.648;2023-05-03T06:24:54;101722.34;;;8.77;78.28
71109;BME280;59614;51.012;-1.648;2023-05-03T06:27:20;101724.75;;;9.39;76.18
71109;BME280;59614;51.012;-1.648;2023-05-03T06:29:46;101722.91;;;9.29;76.88
71109;BME280;59614;51.012;-1.648;2023-05-03T06:32:13;101727.91;;;9.07;75.72
71109;BME280;59614;51.012;-1.648;2023-05-03T06:34:39;101722.81;;;9.21;76.59
71109;BME280;59614;51.012;-1.648;2023-05-03T06:37:05;101720.59;;;9.70;74.02
71109;BME280;59614;51.012;-1.648;2023-05-03T06:39:30;101732.84;;;9.61;75.73
71109;BME280;59614;51.012;-1.648;2023-05-03T06:41:56;101719.81;;;9.78;75.90
71109;BME280;59614;51.012;-1.648;2023-05-03T06:44:21;101713.09;;;10.31;73.77
71109;BME280;59614;51.012;-1.648;2023-05-03T06:46:47;101720.66;;;9.77;73.79
71109;BME280;59614;51.012;-1.648;2023-05-03T06:49:13;101722.50;;;9.87;74.03
71109;BME280;59614;51.012;-1.648;2023-05-03T06:51:38;101713.03;;;10.20;74.90
71109;BME280;59614;51.012;-1.648;2023-05-03T06:54:04;101711.56;;;10.70;72.92
71109;BME280;59614;51.012;-1.648;2023-05-03T06:56:34;101710.66;;;10.68;71.53
71109;BME280;59614;51.012;-1.648;2023-05-03T06:59:01;101705.09;;;10.12;73.86
71109;BME280;59614;51.012;-1.648;2023-05-03T07:01:26;101708.06;;;10.79;71.78
71109;BME280;59614;51.012;-1.648;2023-05-03T07:03:52;101706.28;;;10.81;72.66
71109;BME280;59614;51.012;-1.648;2023-05-03T07:06:17;101710.84;;;11.59;69.25
71109;BME280;59614;51.012;-1.648;2023-05-03T07:08:43;101712.59;;;11.42;70.29
71109;BME280;59614;51.012;-1.648;2023-05-03T07:11:09;101711.72;;;11.46;69.14
71109;BME280;59614;51.012;-1.648;2023-05-03T07:13:35;101709.94;;;11.73;68.29
71109;BME280;59614;51.012;-1.648;2023-05-03T07:16:00;101700.97;;;12.51;65.69
71109;BME280;59614;51.012;-1.648;2023-05-03T07:18:26;101696.72;;;11.84;68.05
71109;BME280;59614;51.012;-1.648;2023-05-03T07:20:51;101699.34;;;11.85;69.01
71109;BME280;59614;51.012;-1.648;2023-05-03T07:23:17;101699.34;;;11.85;68.58
71109;BME280;59614;51.012;-1.648;2023-05-03T07:25:43;101696.47;;;12.75;65.11
71109;BME280;59614;51.012;-1.648;2023-05-03T07:28:10;101700.97;;;12.58;63.79
71109;BME280;59614;51.012;-1.648;2023-05-03T07:30:35;101692.28;;;12.12;66.02
71109;BME280;59614;51.012;-1.648;2023-05-03T07:33:00;101694.88;;;12.37;66.25
71109;BME280;59614;51.012;-1.648;2023-05-03T07:35:26;101684.81;;;13.03;64.33
71109;BME280;59614;51.012;-1.648;2023-05-03T07:37:52;101688.19;;;13.29;62.39
71109;BME280;59614;51.012;-1.648;2023-05-03T07:40:18;101678.78;;;12.79;64.08
71109;BME280;59614;51.012;-1.648;2023-05-03T07:42:43;101680.44;;;13.00;64.84
71109;BME280;59614;51.012;-1.648;2023-05-03T07:45:09;101684.31;;;12.18;64.40
71109;BME280;59614;51.012;-1.648;2023-05-03T07:47:34;101691.78;;;13.18;62.63
71109;BME280;59614;51.012;-1.648;2023-05-03T07:50:03;101689.97;;;13.24;63.81
71109;BME280;59614;51.012;-1.648;2023-05-03T07:52:37;101689.03;;;14.30;61.65
71109;BME280;59614;51.012;-1.648;2023-05-03T07:55:03;101693.56;;;14.92;58.95
71109;BME280;59614;51.012;-1.648;2023-05-03T07:57:29;101688.69;;;14.56;58.38
71109;BME280;59614;51.012;-1.648;2023-05-03T07:59:55;101688.28;;;14.15;60.12
71109;BME280;59614;51.012;-1.648;2023-05-03T08:02:20;101681.88;;;15.04;59.89
71109;BME280;59614;51.012;-1.648;2023-05-03T08:04:46;101685.41;;;13.48;61.73
71109;BME280;59614;51.012;-1.648;2023-05-03T08:07:12;101689.00;;;13.36;60.87
71109;BME280;59614;51.012;-1.648;2023-05-03T08:09:39;101695.38;;;13.13;61.48
71109;BME280;59614;51.012;-1.648;2023-05-03T08:12:05;101688.66;;;13.83;60.61
71109;BME280;59614;51.012;-1.648;2023-05-03T08:14:30;101673.72;;;13.72;60.07
71109;BME280;59614;51.012;-1.648;2023-05-03T08:16:56;101678.31;;;13.53;59.48
71109;BME280;59614;51.012;-1.648;2023-05-03T08:19:21;101677.78;;;14.81;58.04
71109;BME280;59614;51.012;-1.648;2023-05-03T08:21:46;101675.81;;;14.95;56.55
71109;BME280;59614;51.012;-1.648;2023-05-03T08:24:12;101673.72;;;15.16;57.21
71109;BME280;59614;51.012;-1.648;2023-05-03T08:26:40;101680.63;;;15.29;56.07
71109;BME280;59614;51.012;-1.648;2023-05-03T08:29:06;101665.19;;;15.50;54.69
71109;BME280;59614;51.012;-1.648;2023-05-03T08:31:32;101661.06;;;16.31;53.91
71109;BME280;59614;51.012;-1.648;2023-05-03T08:33:57;101661.81;;;16.78;50.56
71109;BME280;59614;51.012;-1.648;2023-05-03T08:36:23;101661.63;;;16.47;52.67
71109;BME280;59614;51.012;-1.648;2023-05-03T08:38:48;101651.34;;;16.69;52.27
71109;BME280;59614;51.012;-1.648;2023-05-03T08:41:27;101662.84;;;15.85;54.22
71109;BME280;59614;51.012;-1.648;2023-05-03T08:43:53;101665.78;;;16.59;54.42
71109;BME280;59614;51.012;-1.648;2023-05-03T08:46:19;101651.69;;;16.96;53.10
71109;BME280;59614;51.012;-1.648;2023-05-03T08:48:50;101663.56;;;14.83;55.44
71109;BME280;59614;51.012;-1.648;2023-05-03T08:51:17;101650.38;;;15.87;53.58
71109;BME280;59614;51.012;-1.648;2023-05-03T08:53:44;101651.50;;;15.72;53.45
71109;BME280;59614;51.012;-1.648;2023-05-03T08:56:11;101654.50;;;15.53;54.59
71109;BME280;59614;51.012;-1.648;2023-05-03T08:58:39;101656.78;;;15.75;55.34
71109;BME280;59614;51.012;-1.648;2023-05-03T09:01:06;101647.50;;;16.82;52.18
71109;BME280;59614;51.012;-1.648;2023-05-03T09:03:32;101641.22;;;17.23;51.20
71109;BME280;59614;51.012;-1.648;2023-05-03T09:05:57;101641.06;;;17.65;49.06
71109;BME280;59614;51.012;-1.648;2023-05-03T09:08:26;101638.97;;;17.43;50.43
71109;BME280;59614;51.012;-1.648;2023-05-03T09:10:52;101633.63;;;17.43;50.52
71109;BME280;59614;51.012;-1.648;2023-05-03T09:13:17;101634.88;;;16.51;50.98
71109;BME280;59614;51.012;-1.648;2023-05-03T09:15:52;101632.22;;;17.96;47.76
71109;BME280;59614;51.012;-1.648;2023-05-03T09:18:18;101629.81;;;17.18;49.10
71109;BME280;59614;51.012;-1.648;2023-05-03T09:20:46;101623.16;;;17.69;48.35
71109;BME280;59614;51.012;-1.648;2023-05-03T09:23:27;101631.50;;;16.43;49.05
71109;BME280;59614;51.012;-1.648;2023-05-03T09:25:54;101629.88;;;17.14;48.33
71109;BME280;59614;51.012;-1.648;2023-05-03T09:28:20;101631.16;;;16.59;49.71
71109;BME280;59614;51.012;-1.648;2023-05-03T09:30:46;101625.44;;;17.84;48.45
71109;BME280;59614;51.012;-1.648;2023-05-03T09:33:12;101624.97;;;18.63;48.48
71109;BME280;59614;51.012;-1.648;2023-05-03T09:36:03;101618.00;;;18.27;46.44
71109;BME280;59614;51.012;-1.648;2023-05-03T09:38:31;101625.31;;;17.20;47.65
71109;BME280;59614;51.012;-1.648;2023-05-03T09:40:57;101615.81;;;17.44;48.98
71109;BME280;59614;51.012;-1.648;2023-05-03T09:43:23;101610.38;;;18.43;48.94
71109;BME280;59614;51.012;-1.648;2023-05-03T09:45:49;101610.19;;;18.21;49.28
71109;BME280;59614;51.012;-1.648;2023-05-03T09:48:14;101613.88;;;19.31;47.44
71109;BME280;59614;51.012;-1.648;2023-05-03T09:50:41;101607.03;;;18.95;44.19
71109;BME280;59614;51.012;-1.648;2023-05-03T09:53:07;101609.28;;;19.61;45.25
71109;BME280;59614;51.012;-1.648;2023-05-03T09:55:35;101613.28;;;18.65;46.69
71109;BME280;59614;51.012;-1.648;2023-05-03T09:58:02;101603.75;;;17.95;46.75
71109;BME280;59614;51.012;-1.648;2023-05-03T10:00:37;101611.47;;;17.40;46.86
71109;BME280;59614;51.012;-1.648;2023-05-03T10:03:21;101602.25;;;19.05;45.35
71109;BME280;59614;51.012;-1.648;2023-05-03T10:05:49;101605.34;;;18.02;44.70
71109;BME280;59614;51.012;-1.648;2023-05-03T10:08:27;101604.81;;;18.21;46.14
71109;BME280;59614;51.012;-1.648;2023-05-03T10:10:57;101593.03;;;19.66;44.31
71109;BME280;59614;51.012;-1.648;2023-05-03T10:13:23;101595.53;;;18.91;46.82
71109;BME280;59614;51.012;-1.648;2023-05-03T10:15:55;101597.53;;;18.26;46.47
71109;BME280;59614;51.012;-1.648;2023-05-03T10:18:24;101595.31;;;18.41;47.82
71109;BME280;59614;51.012;-1.648;2023-05-03T10:20:55;101587.22;;;19.27;44.68
71109;BME280;59614;51.012;-1.648;2023-05-03T10:23:22;101576.03;;;19.67;44.03
71109;BME280;59614;51.012;-1.648;2023-05-03T10:28:32;101576.75;;;18.93;45.57
71109;BME280;59614;51.012;-1.648;2023-05-03T10:30:58;101571.25;;;19.75;43.42
71109;BME280;59614;51.012;-1.648;2023-05-03T10:33:28;101575.41;;;19.33;44.96
71109;BME280;59614;51.012;-1.648;2023-05-03T10:35:54;101570.34;;;18.98;45.07
71109;BME280;59614;51.012;-1.648;2023-05-03T10:38:25;101563.78;;;19.59;43.51
71109;BME280;59614;51.012;-1.648;2023-05-03T10:40:52;101573.16;;;19.21;45.74
71109;BME280;59614;51.012;-1.648;2023-05-03T10:46:04;101567.78;;;20.44;41.96
71109;BME280;59614;51.012;-1.648;2023-05-03T10:48:31;101562.88;;;19.84;43.05
71109;BME280;59614;51.012;-1.648;2023-05-03T10:51:38;101570.34;;;18.42;45.20
71109;BME280;59614;51.012;-1.648;2023-05-03T10:54:03;101562.63;;;18.32;45.48
71109;BME280;59614;51.012;-1.648;2023-05-03T10:56:29;101556.78;;;18.48;46.30
71109;BME280;59614;51.012;-1.648;2023-05-03T10:58:55;101547.72;;;18.80;46.87
71109;BME280;59614;51.012;-1.648;2023-05-03T11:01:22;101542.34;;;19.36;44.12
71109;BME280;59614;51.012;-1.648;2023-05-03T11:03:57;101540.94;;;20.22;43.70
71109;BME280;59614;51.012;-1.648;2023-05-03T11:06:34;101534.84;;;20.18;43.44
71109;BME280;59614;51.012;-1.648;2023-05-03T11:09:01;101528.38;;;19.51;42.54
71109;BME280;59614;51.012;-1.648;2023-05-03T11:11:28;101531.16;;;19.23;44.22
71109;BME280;59614;51.012;-1.648;2023-05-03T11:13:53;101532.69;;;19.05;43.78
71109;BME280;59614;51.012;-1.648;2023-05-03T11:16:19;101528.78;;;20.13;43.19
71109;BME280;59614;51.012;-1.648;2023-05-03T11:18:46;101519.44;;;20.90;42.15
71109;BME280;59614;51.012;-1.648;2023-05-03T11:21:13;101518.09;;;20.58;42.55
71109;BME280;59614;51.012;-1.648;2023-05-03T11:23:38;101522.06;;;19.78;44.06
71109;BME280;59614;51.012;-1.648;2023-05-03T11:26:10;101514.34;;;19.94;45.57
71109;BME280;59614;51.012;-1.648;2023-05-03T11:28:43;101508.03;;;20.63;42.97
71109;BME280;59614;51.012;-1.648;2023-05-03T11:31:09;101510.72;;;20.63;42.72
71109;BME280;59614;51.012;-1.648;2023-05-03T11:33:38;101510.72;;;20.63;42.98
71109;BME280;59614;51.012;-1.648;2023-05-03T11:36:05;101499.25;;;21.43;40.90
71109;BME280;59614;51.012;-1.648;2023-05-03T11:38:32;101501.88;;;21.04;41.56
71109;BME280;59614;51.012;-1.648;2023-05-03T11:40:59;101492.94;;;20.16;42.46
71109;BME280;59614;51.012;-1.648;2023-05-03T11:43:25;101491.97;;;19.95;43.37
71109;BME280;59614;51.012;-1.648;2023-05-03T11:45:54;101488.63;;;19.89;43.60
71109;BME280;59614;51.012;-1.648;2023-05-03T11:48:21;101483.28;;;20.12;43.72
71109;BME280;59614;51.012;-1.648;2023-05-03T11:50:53;101478.28;;;20.69;41.42
71109;BME280;59614;51.012;-1.648;2023-05-03T11:53:23;101477.44;;;19.76;44.78
71109;BME280;59614;51.012;-1.648;2023-05-03T11:55:50;101475.94;;;21.04;41.89
71109;BME280;59614;51.012;-1.648;2023-05-03T11:58:20;101473.44;;;20.12;42.05
71109;BME280;59614;51.012;-1.648;2023-05-03T12:00:49;101473.31;;;20.37;42.50
71109;BME280;59614;51.012;-1.648;2023-05-03T12:03:22;101471.19;;;20.46;43.28
71109;BME280;59614;51.012;-1.648;2023-05-03T12:05:49;101464.38;;;21.23;40.87
71109;BME280;59614;51.012;-1.648;2023-05-03T12:08:15;101463.25;;;21.08;41.29
71109;BME280;59614;51.012;-1.648;2023-05-03T12:10:42;101465.16;;;21.45;40.55
71109;BME280;59614;51.012;-1.648;2023-05-03T12:13:08;101460.16;;;20.96;42.29
71109;BME280;59614;51.012;-1.648;2023-05-03T12:15:35;101464.69;;;20.74;43.13
71109;BME280;59614;51.012;-1.648;2023-05-03T12:18:04;101461.22;;;19.57;43.99
71109;BME280;59614;51.012;-1.648;2023-05-03T12:20:30;101458.88;;;20.42;44.65
71109;BME280;59614;51.012;-1.648;2023-05-03T12:22:59;101461.72;;;19.67;44.54
71109;BME280;59614;51.012;-1.648;2023-05-03T12:25:30;101441.31;;;20.77;42.75
71109;BME280;59614;51.012;-1.648;2023-05-03T12:27:58;101443.97;;;20.55;43.49
71109;BME280;59614;51.012;-1.648;2023-05-03T12:30:24;101441.09;;;21.82;41.38
71109;BME280;59614;51.012;-1.648;2023-05-03T12:32:50;101444.91;;;20.97;43.15
71109;BME280;59614;51.012;-1.648;2023-05-03T12:35:17;101431.16;;;21.84;40.63
71109;BME280;59614;51.012;-1.648;2023-05-03T12:37:45;101426.06;;;22.34;40.27
71109;BME280;59614;51.012;-1.648;2023-05-03T12:40:10;101425.50;;;22.27;39.62
71109;BME280;59614;51.012;-1.648;2023-05-03T12:42:36;101421.44;;;21.82;40.59
71109;BME280;59614;51.012;-1.648;2023-05-03T12:45:01;101409.88;;;20.59;42.66
71109;BME280;59614;51.012;-1.648;2023-05-03T12:47:27;101410.94;;;21.95;41.66
71109;BME280;59614;51.012;-1.648;2023-05-03T12:49:53;101411.63;;;21.62;42.39
71109;BME280;59614;51.012;-1.648;2023-05-03T12:52:21;101408.94;;;20.60;44.13
71109;BME280;59614;51.012;-1.648;2023-05-03T12:54:48;101406.38;;;21.78;42.51